Airfield :
LOGIN :

Register | Disclaimer

   EN    FR    IT 

 










Legend :    VFR   Marginal VFR   IFR   Intensive IFR   Very Intensive IFR
Visi :
Ceiling :
>= 8 km
>= 3000ft
5 to 8 km
1000 to 3000 ft
1500m to 5 km
500 to 1000 ft
800 to 1500m
200 to 500 ft
< 800m
< 200 ft
Symbols :   Thunderstorms  Fog  Heavy snow  Heavy precipitations  Wind > 20 kt
SIGMETs :     Misc.  Thunderstorms  Icing  Turbulence  Mountain Waves  Volcanic Ashes






- Airport Elevation : 141 ft
- IATA code : SKS


EKSP - Srydstrup Vojens

CURRENT METAR :
  • 042150Z 23009KT 2500 -DZRA FEW004 BKN006 16/15 Q1006

EXPIRED METARs :
  • 042120Z 23008KT 2500 -DZRA FEW004 BKN006 16/15 Q1006
  • 042100Z 23010KT 2500 -DZ FEW004 BKN006 16/15 Q1006
  • 042020Z 23010KT 3000 -DZ FEW004 BKN006 BKN010 16/15 Q1006
  • 041950Z 23010KT 3000 -DZRA FEW004 SCT006 BKN010 16/15 Q1006
  • 041920Z 24011KT 9999 BKN005 BKN010 16/15 Q1006

TAF TAF EKSP
Valid from the 04 at 21:00 until the 05 at 21:00 UTC


042022Z 0421/0521 23012KT 8000 FEW004 BKN015
TEMPO 0421/0506 2000 RADZ BKN004
BECMG 0504/0507 23018G28KT
TEMPO 0506/0511 4000 -RA BR BKN012
BECMG 0509/0511 24020G35KT
TEMPO 0512/0521 7000 -SHRA BKN015TCU
BECMG 0518/0521 24012KT



MET'MAP, your aeronautical weather chart ! - Copyright ORBIFLY December 2007 - Disclaimer

ORBIFLY MET'MAP TEAM :

Programming & Development : Alexandra Zaïnal
Concept & original design : Baudouin d'Aumeries
Assistance for programming : Marc-Olivier Méhu
Technical & hardware support : Manuel Goepfert

Contact : metmap@orbifly.com




SOURCES & CREDITS :

   NOAA